Wetterdaten vom Dienstag, 28. Juni 2022

Temperatur Taupunkt Windchill Luftfeuchte Luftdruck Solarstrahlung Regen ET
(Verdunstung von Wasser)
Wind
Max 28.2 °C
17:20
15 °C
00:00
28.2 °C
17:20
94%
06:20
1019.2 hPa
06:10
917 W/m²
13:45
16.2 km/h
12:55 km/h
Durchschnitt 20.7 °C 11.7 °C 20.4 °C 63% 1016.9 hPa 538 W/m² 0.3 mm 5.359 mm 4.7 km/h
Min 12.5 °C
05:25
8.2 °C
15:55
12.5 °C
05:55
31%
15:25
1012.4 hPa
19:30
0 km/h (Böe)
02:40 km/h
Zeit
00:00 16.5 °C 15.0 °C 16.5 °C 91% 1016.9 hPa 0 W/m² 0.0 mm 0.000 mm 4.2 km/h
00:05 16.5 °C 15.0 °C 16.5 °C 91% 1016.8 hPa 0 W/m² 0.0 mm 0.000 mm 1.3 km/h
00:10 16.5 °C 15.0 °C 16.5 °C 91% 1016.8 hPa 0 W/m² 0.0 mm 0.000 mm 1.0 km/h
00:15 16.5 °C 15.0 °C 16.5 °C 91% 1016.7 hPa 0 W/m² 0.0 mm 0.000 mm 1.1 km/h
00:20 16.5 °C 15.0 °C 16.5 °C 91% 1016.7 hPa 0 W/m² 0.0 mm 0.000 mm 2.1 km/h
00:25 16.5 °C 15.0 °C 16.5 °C 91% 1016.6 hPa 0 W/m² 0.0 mm 0.000 mm 3.1 km/h
00:30 16.5 °C 15.0 °C 16.5 °C 91% 1016.7 hPa 0 W/m² 0.0 mm 0.000 mm 4.7 km/h
00:35 16.5 °C 15.0 °C 15.4 °C 91% 1016.8 hPa 0 W/m² 0.0 mm 0.000 mm 8.5 km/h
00:40 16.5 °C 15.0 °C 16.5 °C 91% 1016.7 hPa 0 W/m² 0.0 mm 0.000 mm 6.1 km/h
00:45 16.5 °C 15.0 °C 16.5 °C 91% 1016.5 hPa 0 W/m² 0.0 mm 0.000 mm 4.8 km/h
00:50 16.5 °C 15.0 °C 16.5 °C 91% 1016.4 hPa 0 W/m² 0.0 mm 0.000 mm 2.6 km/h
00:55 16.5 °C 15.0 °C 16.5 °C 91% 1016.6 hPa 0 W/m² 0.0 mm 0.000 mm 1.4 km/h
01:00 16.4 °C 14.9 °C 16.4 °C 91% 1016.6 hPa 0 W/m² 0.0 mm 0.000 mm 3.7 km/h
01:05 16.4 °C 14.9 °C 16.4 °C 91% 1016.6 hPa 0 W/m² 0.0 mm 0.000 mm 3.7 km/h
01:10 16.3 °C 14.8 °C 16.2 °C 91% 1016.6 hPa 0 W/m² 0.0 mm 0.000 mm 6.6 km/h
01:15 16.2 °C 14.7 °C 16.2 °C 91% 1016.6 hPa 0 W/m² 0.0 mm 0.000 mm 3.9 km/h
01:20 16.2 °C 14.7 °C 16.2 °C 91% 1016.5 hPa 0 W/m² 0.0 mm 0.000 mm 4.9 km/h
01:25 16.1 °C 14.8 °C 16.1 °C 92% 1016.8 hPa 0 W/m² 0.0 mm 0.000 mm 5.3 km/h
01:30 16.0 °C 14.7 °C 15.4 °C 92% 1016.9 hPa 0 W/m² 0.0 mm 0.000 mm 7.6 km/h
01:35 16.0 °C 14.7 °C 14.9 °C 92% 1017.0 hPa 0 W/m² 0.0 mm 0.000 mm 8.6 km/h
01:40 15.9 °C 14.6 °C 14.7 °C 92% 1017.1 hPa 0 W/m² 0.0 mm 0.000 mm 8.7 km/h
01:45 15.8 °C 14.5 °C 15.4 °C 92% 1017.0 hPa 0 W/m² 0.0 mm 0.000 mm 7.2 km/h
01:50 15.8 °C 14.5 °C 15.4 °C 92% 1017.1 hPa 0 W/m² 0.0 mm 0.000 mm 7.1 km/h
01:55 15.8 °C 14.5 °C 15.5 °C 92% 1017.2 hPa 0 W/m² 0.0 mm 0.000 mm 6.9 km/h
02:00 15.7 °C 14.4 °C 15.7 °C 92% 1017.1 hPa 0 W/m² 0.0 mm 0.000 mm 5.9 km/h
02:05 15.7 °C 14.4 °C 15.7 °C 92% 1017.2 hPa 0 W/m² 0.0 mm 0.000 mm 4.9 km/h
02:10 15.7 °C 14.4 °C 15.7 °C 92% 1017.2 hPa 0 W/m² 0.0 mm 0.000 mm 4.5 km/h
02:15 15.7 °C 14.4 °C 15.7 °C 92% 1017.4 hPa 0 W/m² 0.0 mm 0.000 mm 4.0 km/h
02:20 15.7 °C 14.4 °C 15.7 °C 92% 1017.4 hPa 0 W/m² 0.0 mm 0.000 mm 1.2 km/h
02:25 15.7 °C 14.4 °C 15.7 °C 92% 1017.5 hPa 0 W/m² 0.0 mm 0.000 mm 1.9 km/h
02:30 15.7 °C 14.4 °C 15.7 °C 92% 1017.6 hPa 0 W/m² 0.0 mm 0.000 mm 3.2 km/h
02:35 15.6 °C 14.3 °C 15.6 °C 92% 1017.6 hPa 0 W/m² 0.0 mm 0.000 mm 0.4 km/h
02:40 15.5 °C 14.2 °C 15.5 °C 92% 1017.6 hPa 0 W/m² 0.0 mm 0.000 mm 0.0 km/h
02:45 15.4 °C 14.1 °C 15.4 °C 92% 1017.7 hPa 0 W/m² 0.0 mm 0.000 mm 0.0 km/h
02:50 15.3 °C 14.0 °C 15.3 °C 92% 1017.7 hPa 0 W/m² 0.0 mm 0.000 mm 0.6 km/h
02:55 15.2 °C 13.9 °C 15.2 °C 92% 1017.7 hPa 0 W/m² 0.0 mm 0.000 mm 0.9 km/h
03:00 15.2 °C 13.9 °C 15.2 °C 92% 1017.7 hPa 0 W/m² 0.0 mm 0.000 mm 1.2 km/h
03:05 15.1 °C 13.8 °C 15.1 °C 92% 1017.8 hPa 0 W/m² 0.0 mm 0.000 mm 0.7 km/h
03:10 14.9 °C 13.6 °C 14.9 °C 92% 1017.8 hPa 0 W/m² 0.3 mm 0.000 mm 0.4 km/h
03:15 14.7 °C 13.2 °C 14.7 °C 91% 1017.8 hPa 0 W/m² 0.0 mm 0.000 mm 0.5 km/h
03:20 14.5 °C 13.0 °C 14.5 °C 91% 1017.8 hPa 0 W/m² 0.0 mm 0.000 mm 2.2 km/h
03:25 14.3 °C 12.8 °C 14.3 °C 91% 1017.8 hPa 0 W/m² 0.0 mm 0.000 mm 3.2 km/h
03:30 14.2 °C 12.8 °C 14.2 °C 91% 1017.7 hPa 0 W/m² 0.0 mm 0.000 mm 4.3 km/h
03:35 14.1 °C 12.7 °C 14.1 °C 91% 1017.7 hPa 0 W/m² 0.0 mm 0.000 mm 1.7 km/h
03:40 14.1 °C 12.7 °C 14.1 °C 91% 1017.7 hPa 0 W/m² 0.0 mm 0.000 mm 0.9 km/h
03:45 14.1 °C 12.8 °C 14.1 °C 92% 1017.8 hPa 0 W/m² 0.0 mm 0.000 mm 3.3 km/h
03:50 14.1 °C 12.8 °C 14.1 °C 92% 1017.8 hPa 0 W/m² 0.0 mm 0.000 mm 1.6 km/h
03:55 14.0 °C 12.7 °C 14.0 °C 92% 1017.8 hPa 0 W/m² 0.0 mm 0.000 mm 0.7 km/h
04:00 13.9 °C 12.6 °C 13.9 °C 92% 1017.9 hPa 0 W/m² 0.0 mm 0.000 mm 2.1 km/h
04:05 13.9 °C 12.6 °C 13.9 °C 92% 1018.0 hPa 0 W/m² 0.0 mm 0.000 mm 1.9 km/h
04:10 13.8 °C 12.5 °C 13.8 °C 92% 1018.1 hPa 0 W/m² 0.0 mm 0.000 mm 2.1 km/h
04:15 13.7 °C 12.3 °C 13.7 °C 91% 1018.2 hPa 0 W/m² 0.0 mm 0.000 mm 0.7 km/h
04:20 13.6 °C 12.2 °C 13.6 °C 91% 1018.3 hPa 0 W/m² 0.0 mm 0.000 mm 0.5 km/h
04:25 13.5 °C 12.1 °C 13.5 °C 91% 1018.3 hPa 0 W/m² 0.0 mm 0.000 mm 0.0 km/h
04:30 13.4 °C 12.0 °C 13.4 °C 91% 1018.3 hPa 0 W/m² 0.0 mm 0.000 mm 0.0 km/h
04:35 13.3 °C 11.9 °C 13.3 °C 91% 1018.3 hPa 0 W/m² 0.0 mm 0.000 mm 0.0 km/h
04:40 13.2 °C 11.8 °C 13.2 °C 91% 1018.4 hPa 0 W/m² 0.0 mm 0.000 mm 0.0 km/h
04:45 13.1 °C 11.7 °C 13.1 °C 91% 1018.5 hPa 0 W/m² 0.0 mm 0.000 mm 0.0 km/h
04:50 13.1 °C 11.7 °C 13.1 °C 91% 1018.5 hPa 0 W/m² 0.0 mm 0.000 mm 0.4 km/h
04:55 12.9 °C 11.5 °C 12.9 °C 91% 1018.5 hPa 0 W/m² 0.0 mm 0.000 mm 0.2 km/h
05:00 12.9 °C 11.5 °C 12.9 °C 91% 1018.5 hPa 0 W/m² 0.0 mm 0.000 mm 0.2 km/h
05:05 12.8 °C 11.4 °C 12.8 °C 91% 1018.5 hPa 0 W/m² 0.0 mm 0.000 mm 0.1 km/h
05:10 12.7 °C 11.3 °C 12.7 °C 91% 1018.6 hPa 0 W/m² 0.0 mm 0.000 mm 2.2 km/h
05:15 12.6 °C 11.2 °C 12.6 °C 91% 1018.7 hPa 0 W/m² 0.0 mm 0.000 mm 1.3 km/h
05:20 12.6 °C 11.3 °C 12.6 °C 92% 1018.7 hPa 0 W/m² 0.0 mm 0.000 mm 0.7 km/h
05:25 12.6 °C 11.3 °C 12.6 °C 92% 1018.8 hPa 2 W/m² 0.0 mm 0.000 mm 2.1 km/h
05:30 12.6 °C 11.3 °C 12.6 °C 92% 1018.8 hPa 5 W/m² 0.0 mm 0.000 mm 2.4 km/h
05:35 12.6 °C 11.3 °C 12.6 °C 92% 1018.8 hPa 7 W/m² 0.0 mm 0.000 mm 3.0 km/h
05:40 12.7 °C 11.6 °C 12.7 °C 93% 1018.9 hPa 9 W/m² 0.0 mm 0.000 mm 2.9 km/h
05:45 12.7 °C 11.4 °C 12.7 °C 92% 1018.9 hPa 17 W/m² 0.0 mm 0.000 mm 0.9 km/h
05:50 12.6 °C 11.3 °C 12.6 °C 92% 1018.9 hPa 36 W/m² 0.0 mm 0.000 mm 0.5 km/h
05:55 12.5 °C 11.2 °C 12.5 °C 92% 1019.0 hPa 43 W/m² 0.0 mm 0.000 mm 0.4 km/h
06:00 12.6 °C 11.5 °C 12.6 °C 93% 1019.1 hPa 51 W/m² 0.0 mm 0.000 mm 0.5 km/h
06:05 12.8 °C 11.7 °C 12.8 °C 93% 1019.1 hPa 60 W/m² 0.0 mm 0.000 mm 2.2 km/h
06:10 12.9 °C 11.8 °C 12.9 °C 93% 1019.2 hPa 69 W/m² 0.0 mm 0.000 mm 1.4 km/h
06:15 13.1 °C 12.0 °C 13.1 °C 93% 1019.2 hPa 80 W/m² 0.0 mm 0.000 mm 0.0 km/h
06:20 13.4 °C 12.5 °C 13.4 °C 94% 1019.1 hPa 91 W/m² 0.0 mm 0.000 mm 0.0 km/h
06:25 13.4 °C 12.1 °C 13.4 °C 92% 1019.2 hPa 103 W/m² 0.0 mm 0.000 mm 0.2 km/h
06:30 13.5 °C 12.2 °C 13.5 °C 92% 1019.1 hPa 116 W/m² 0.0 mm 0.000 mm 0.0 km/h
06:35 13.7 °C 12.4 °C 13.7 °C 92% 1019.1 hPa 128 W/m² 0.0 mm 0.000 mm 0.3 km/h
06:40 13.9 °C 12.6 °C 13.9 °C 92% 1019.0 hPa 141 W/m² 0.0 mm 0.000 mm 0.5 km/h
06:41 14.0 °C 12.6 °C 14.0 °C 91% 1019.0 hPa 149 W/m² 0.0 mm 0.000 mm 0.0 km/h
06:42 14.1 °C 12.7 °C 14.1 °C 91% 1019.1 hPa 151 W/m² 0.0 mm 0.000 mm 0.0 km/h
06:43 14.1 °C 12.7 °C 14.1 °C 91% 1019.1 hPa 156 W/m² 0.0 mm 0.000 mm 0.0 km/h
06:45 14.2 °C 12.8 °C 14.2 °C 91% 1019.0 hPa 158 W/m² 0.0 mm 0.000 mm 1.3 km/h
06:50 14.3 °C 12.7 °C 14.3 °C 90% 1019.0 hPa 166 W/m² 0.0 mm 0.000 mm 1.6 km/h
06:55 14.4 °C 12.6 °C 14.4 °C 89% 1019.0 hPa 180 W/m² 0.0 mm 0.000 mm 1.6 km/h
07:00 14.5 °C 12.7 °C 14.5 °C 89% 1019.0 hPa 194 W/m² 0.0 mm 0.076 mm 2.2 km/h
07:05 14.6 °C 12.8 °C 14.6 °C 89% 1019.0 hPa 209 W/m² 0.0 mm 0.000 mm 2.6 km/h
07:10 14.8 °C 13.0 °C 14.8 °C 89% 1018.9 hPa 224 W/m² 0.0 mm 0.000 mm 1.7 km/h
07:15 14.9 °C 13.1 °C 14.9 °C 89% 1018.9 hPa 238 W/m² 0.0 mm 0.000 mm 1.6 km/h
07:20 15.1 °C 13.0 °C 15.1 °C 87% 1018.9 hPa 251 W/m² 0.0 mm 0.000 mm 4.2 km/h
07:25 15.2 °C 13.2 °C 15.2 °C 88% 1018.8 hPa 266 W/m² 0.0 mm 0.000 mm 3.4 km/h
07:30 15.3 °C 13.1 °C 15.3 °C 87% 1018.8 hPa 281 W/m² 0.0 mm 0.000 mm 4.1 km/h
07:35 15.5 °C 13.5 °C 15.5 °C 88% 1018.8 hPa 296 W/m² 0.0 mm 0.000 mm 3.4 km/h
07:40 15.7 °C 13.5 °C 15.7 °C 87% 1018.9 hPa 309 W/m² 0.0 mm 0.000 mm 3.7 km/h
07:45 15.8 °C 13.5 °C 15.8 °C 86% 1018.8 hPa 322 W/m² 0.0 mm 0.000 mm 5.2 km/h
07:50 15.8 °C 13.3 °C 15.8 °C 85% 1018.8 hPa 337 W/m² 0.0 mm 0.000 mm 4.6 km/h
07:55 16.0 °C 13.5 °C 16.0 °C 85% 1018.8 hPa 350 W/m² 0.0 mm 0.000 mm 3.1 km/h
08:00 16.2 °C 13.3 °C 16.2 °C 83% 1018.9 hPa 364 W/m² 0.0 mm 0.153 mm 4.7 km/h
08:05 16.7 °C 13.4 °C 16.7 °C 81% 1019.0 hPa 375 W/m² 0.0 mm 0.000 mm 1.0 km/h
08:10 17.0 °C 13.7 °C 17.0 °C 81% 1018.9 hPa 389 W/m² 0.0 mm 0.000 mm 2.1 km/h
08:15 17.0 °C 13.5 °C 17.0 °C 80% 1018.9 hPa 404 W/m² 0.0 mm 0.000 mm 2.9 km/h
08:20 17.2 °C 13.7 °C 17.2 °C 80% 1018.9 hPa 417 W/m² 0.0 mm 0.000 mm 3.0 km/h
08:25 17.2 °C 13.5 °C 17.2 °C 79% 1018.8 hPa 431 W/m² 0.0 mm 0.000 mm 3.9 km/h
08:30 17.4 °C 13.7 °C 17.4 °C 79% 1018.8 hPa 444 W/m² 0.0 mm 0.000 mm 1.1 km/h
08:35 17.6 °C 14.1 °C 17.6 °C 80% 1018.8 hPa 457 W/m² 0.0 mm 0.000 mm 1.4 km/h
08:40 18.2 °C 14.5 °C 18.2 °C 79% 1018.8 hPa 470 W/m² 0.0 mm 0.000 mm 1.3 km/h
08:45 18.9 °C 13.9 °C 18.9 °C 73% 1018.8 hPa 484 W/m² 0.0 mm 0.000 mm 2.2 km/h
08:50 19.1 °C 14.4 °C 19.1 °C 74% 1018.8 hPa 497 W/m² 0.0 mm 0.000 mm 3.7 km/h
08:55 19.5 °C 13.9 °C 19.5 °C 70% 1018.7 hPa 509 W/m² 0.0 mm 0.000 mm 0.6 km/h
09:00 19.7 °C 14.3 °C 19.7 °C 71% 1018.7 hPa 522 W/m² 0.0 mm 0.254 mm 4.6 km/h
09:05 20.1 °C 13.5 °C 20.1 °C 66% 1018.7 hPa 534 W/m² 0.0 mm 0.000 mm 2.8 km/h
09:10 20.2 °C 12.7 °C 20.2 °C 62% 1018.7 hPa 547 W/m² 0.0 mm 0.000 mm 4.3 km/h
09:15 20.2 °C 13.4 °C 20.2 °C 65% 1018.6 hPa 562 W/m² 0.0 mm 0.000 mm 3.1 km/h
09:20 20.4 °C 12.9 °C 20.4 °C 62% 1018.7 hPa 574 W/m² 0.0 mm 0.000 mm 3.6 km/h
09:25 20.6 °C 13.1 °C 20.6 °C 62% 1018.7 hPa 587 W/m² 0.0 mm 0.000 mm 2.9 km/h
09:30 20.7 °C 12.1 °C 20.7 °C 58% 1018.7 hPa 599 W/m² 0.0 mm 0.000 mm 2.8 km/h
09:35 21.1 °C 12.5 °C 21.1 °C 58% 1018.7 hPa 610 W/m² 0.0 mm 0.000 mm 2.3 km/h
09:40 21.3 °C 13.2 °C 21.3 °C 60% 1018.7 hPa 624 W/m² 0.0 mm 0.000 mm 1.5 km/h
09:45 21.8 °C 13.4 °C 21.8 °C 59% 1018.5 hPa 638 W/m² 0.0 mm 0.000 mm 1.6 km/h
09:50 22.2 °C 12.4 °C 22.2 °C 54% 1018.5 hPa 645 W/m² 0.0 mm 0.000 mm 0.8 km/h
09:55 22.4 °C 12.6 °C 22.4 °C 54% 1018.5 hPa 645 W/m² 0.0 mm 0.000 mm 0.8 km/h
10:00 22.6 °C 11.6 °C 22.6 °C 50% 1018.4 hPa 647 W/m² 0.0 mm 0.355 mm 0.0 km/h
10:05 22.7 °C 12.6 °C 22.7 °C 53% 1018.5 hPa 649 W/m² 0.0 mm 0.000 mm 0.4 km/h
10:10 22.8 °C 11.8 °C 22.8 °C 50% 1018.5 hPa 703 W/m² 0.0 mm 0.000 mm 1.5 km/h
10:15 22.8 °C 11.2 °C 22.8 °C 48% 1018.3 hPa 719 W/m² 0.0 mm 0.000 mm 1.9 km/h
10:20 22.8 °C 11.5 °C 22.8 °C 49% 1018.4 hPa 743 W/m² 0.0 mm 0.000 mm 5.7 km/h
10:25 23.3 °C 14.3 °C 23.3 °C 57% 1018.2 hPa 756 W/m² 0.0 mm 0.000 mm 1.1 km/h
10:30 23.6 °C 12.2 °C 23.6 °C 49% 1018.1 hPa 678 W/m² 0.0 mm 0.000 mm 3.9 km/h
10:35 23.5 °C 13.1 °C 23.5 °C 52% 1018.0 hPa 584 W/m² 0.0 mm 0.000 mm 2.4 km/h
10:40 23.4 °C 11.1 °C 23.4 °C 46% 1017.9 hPa 747 W/m² 0.0 mm 0.000 mm 4.2 km/h
10:45 23.3 °C 12.3 °C 23.3 °C 50% 1017.9 hPa 465 W/m² 0.0 mm 0.000 mm 1.5 km/h
10:50 23.4 °C 11.8 °C 23.4 °C 48% 1017.9 hPa 651 W/m² 0.0 mm 0.000 mm 2.6 km/h
10:55 23.5 °C 11.5 °C 23.5 °C 47% 1017.9 hPa 615 W/m² 0.0 mm 0.000 mm 1.9 km/h
11:00 23.4 °C 9.4 °C 23.4 °C 41% 1017.8 hPa 465 W/m² 0.0 mm 0.407 mm 3.8 km/h
11:05 23.3 °C 11.0 °C 23.3 °C 46% 1017.8 hPa 512 W/m² 0.0 mm 0.000 mm 1.2 km/h
11:10 23.7 °C 9.7 °C 23.7 °C 41% 1017.9 hPa 874 W/m² 0.0 mm 0.000 mm 3.7 km/h
11:15 24.1 °C 11.7 °C 24.1 °C 46% 1017.9 hPa 834 W/m² 0.0 mm 0.000 mm 2.0 km/h
11:20 24.6 °C 11.9 °C 24.6 °C 45% 1018.0 hPa 824 W/m² 0.0 mm 0.000 mm 2.7 km/h
11:25 24.6 °C 10.5 °C 24.6 °C 41% 1017.8 hPa 826 W/m² 0.0 mm 0.000 mm 4.3 km/h
11:30 24.7 °C 10.9 °C 24.7 °C 42% 1017.7 hPa 829 W/m² 0.0 mm 0.000 mm 3.6 km/h
11:35 24.8 °C 11.4 °C 24.8 °C 43% 1017.6 hPa 836 W/m² 0.0 mm 0.000 mm 4.7 km/h
11:40 25.2 °C 12.1 °C 25.2 °C 44% 1017.5 hPa 843 W/m² 0.0 mm 0.000 mm 2.3 km/h
11:45 25.6 °C 11.7 °C 25.6 °C 42% 1017.4 hPa 852 W/m² 0.0 mm 0.000 mm 0.6 km/h
11:50 25.9 °C 12.0 °C 25.9 °C 42% 1017.3 hPa 873 W/m² 0.0 mm 0.000 mm 1.4 km/h
11:55 26.1 °C 12.2 °C 26.1 °C 42% 1017.4 hPa 869 W/m² 0.0 mm 0.000 mm 5.4 km/h
12:00 25.9 °C 10.1 °C 25.7 °C 37% 1017.4 hPa 872 W/m² 0.0 mm 0.533 mm 7.1 km/h
12:05 25.4 °C 9.6 °C 25.2 °C 37% 1017.4 hPa 887 W/m² 0.0 mm 0.000 mm 7.2 km/h
12:15 25.4 °C 8.8 °C 25.4 °C 35% 1017.5 hPa 893 W/m² 0.0 mm 0.000 mm 6.6 km/h
12:20 25.8 °C 10.8 °C 25.8 °C 39% 1017.3 hPa 899 W/m² 0.0 mm 0.000 mm 2.0 km/h
12:25 26.3 °C 10.8 °C 26.3 °C 38% 1017.3 hPa 854 W/m² 0.0 mm 0.000 mm 1.3 km/h
12:30 26.6 °C 10.7 °C 26.6 °C 37% 1017.3 hPa 834 W/m² 0.0 mm 0.000 mm 1.5 km/h
12:35 26.8 °C 10.9 °C 26.8 °C 37% 1017.3 hPa 852 W/m² 0.0 mm 0.000 mm 1.9 km/h
12:40 26.8 °C 10.5 °C 26.8 °C 36% 1017.3 hPa 897 W/m² 0.0 mm 0.000 mm 3.5 km/h
12:45 26.4 °C 11.7 °C 26.4 °C 40% 1017.2 hPa 899 W/m² 0.0 mm 0.000 mm 6.4 km/h
12:50 26.7 °C 10.0 °C 26.7 °C 35% 1017.1 hPa 897 W/m² 0.0 mm 0.000 mm 2.5 km/h
12:55 25.9 °C 8.8 °C 24.2 °C 34% 1017.0 hPa 898 W/m² 0.0 mm 0.000 mm 16.2 km/h
13:00 25.8 °C 10.4 °C 25.8 °C 38% 1016.9 hPa 898 W/m² 0.0 mm 0.610 mm 3.4 km/h
13:05 26.2 °C 10.7 °C 26.2 °C 38% 1017.0 hPa 897 W/m² 0.0 mm 0.000 mm 2.9 km/h
13:10 26.7 °C 10.0 °C 26.7 °C 35% 1016.9 hPa 897 W/m² 0.0 mm 0.000 mm 5.1 km/h
13:15 26.7 °C 10.4 °C 26.7 °C 36% 1016.8 hPa 893 W/m² 0.0 mm 0.000 mm 6.1 km/h
13:20 26.3 °C 9.2 °C 25.2 °C 34% 1016.9 hPa 896 W/m² 0.0 mm 0.000 mm 12.3 km/h
13:25 25.5 °C 8.9 °C 23.9 °C 35% 1016.7 hPa 900 W/m² 0.0 mm 0.000 mm 14.8 km/h
13:30 25.3 °C 9.6 °C 24.7 °C 37% 1016.7 hPa 900 W/m² 0.0 mm 0.000 mm 8.8 km/h
13:35 25.6 °C 10.2 °C 25.3 °C 38% 1016.5 hPa 819 W/m² 0.0 mm 0.000 mm 7.6 km/h
13:40 26.1 °C 11.4 °C 26.1 °C 40% 1016.5 hPa 839 W/m² 0.0 mm 0.000 mm 2.8 km/h
13:45 26.4 °C 10.5 °C 26.4 °C 37% 1016.5 hPa 917 W/m² 0.0 mm 0.000 mm 5.7 km/h
13:50 26.6 °C 9.9 °C 26.6 °C 35% 1016.3 hPa 904 W/m² 0.0 mm 0.000 mm 5.7 km/h
13:55 26.5 °C 8.4 °C 25.5 °C 32% 1016.3 hPa 903 W/m² 0.0 mm 0.000 mm 11.9 km/h
14:00 26.5 °C 8.9 °C 26.5 °C 33% 1016.2 hPa 901 W/m² 0.0 mm 0.635 mm 4.1 km/h
14:05 26.8 °C 10.5 °C 26.7 °C 36% 1016.0 hPa 909 W/m² 0.0 mm 0.000 mm 6.8 km/h
14:10 26.5 °C 10.2 °C 26.3 °C 36% 1015.9 hPa 744 W/m² 0.0 mm 0.000 mm 7.5 km/h
14:15 26.6 °C 8.5 °C 26.6 °C 32% 1015.9 hPa 798 W/m² 0.0 mm 0.000 mm 5.8 km/h
14:20 26.3 °C 8.3 °C 25.2 °C 32% 1015.8 hPa 864 W/m² 0.0 mm 0.000 mm 12.8 km/h
14:25 26.4 °C 9.7 °C 26.4 °C 35% 1015.7 hPa 853 W/m² 0.0 mm 0.000 mm 6.4 km/h
14:30 26.4 °C 9.7 °C 26.0 °C 35% 1015.7 hPa 852 W/m² 0.0 mm 0.000 mm 8.3 km/h
14:35 26.8 °C 11.3 °C 26.8 °C 38% 1015.6 hPa 897 W/m² 0.0 mm 0.000 mm 5.2 km/h
14:40 26.9 °C 10.1 °C 26.8 °C 35% 1015.7 hPa 844 W/m² 0.0 mm 0.000 mm 7.0 km/h
14:45 26.5 °C 8.4 °C 25.1 °C 32% 1015.7 hPa 835 W/m² 0.0 mm 0.000 mm 15.6 km/h
14:50 26.2 °C 9.5 °C 25.6 °C 35% 1015.7 hPa 802 W/m² 0.0 mm 0.000 mm 9.6 km/h
14:55 26.7 °C 10.4 °C 26.7 °C 36% 1015.7 hPa 849 W/m² 0.0 mm 0.000 mm 2.9 km/h
15:00 27.1 °C 10.7 °C 27.1 °C 36% 1015.6 hPa 787 W/m² 0.0 mm 0.609 mm 3.2 km/h
15:05 27.4 °C 9.7 °C 27.4 °C 33% 1015.6 hPa 835 W/m² 0.0 mm 0.000 mm 2.1 km/h
15:10 27.3 °C 9.1 °C 27.1 °C 32% 1015.5 hPa 837 W/m² 0.0 mm 0.000 mm 7.7 km/h
15:15 27.2 °C 10.4 °C 27.1 °C 35% 1015.5 hPa 828 W/m² 0.0 mm 0.000 mm 7.0 km/h
15:20 27.7 °C 11.3 °C 27.7 °C 36% 1015.4 hPa 820 W/m² 0.0 mm 0.000 mm 2.7 km/h
15:25 27.6 °C 8.9 °C 27.0 °C 31% 1015.3 hPa 805 W/m² 0.0 mm 0.000 mm 10.3 km/h
15:30 27.5 °C 9.8 °C 27.5 °C 33% 1015.1 hPa 791 W/m² 0.0 mm 0.000 mm 5.8 km/h
15:35 27.2 °C 10.0 °C 26.4 °C 34% 1015.1 hPa 770 W/m² 0.0 mm 0.000 mm 11.6 km/h
15:40 26.8 °C 8.2 °C 25.9 °C 31% 1015.0 hPa 624 W/m² 0.0 mm 0.000 mm 12.0 km/h
15:45 26.3 °C 8.7 °C 25.3 °C 33% 1015.0 hPa 676 W/m² 0.0 mm 0.000 mm 11.8 km/h
15:50 26.2 °C 8.6 °C 26.2 °C 33% 1014.8 hPa 616 W/m² 0.0 mm 0.000 mm 3.1 km/h
15:55 26.2 °C 8.2 °C 25.1 °C 32% 1014.7 hPa 561 W/m² 0.0 mm 0.000 mm 12.4 km/h
16:00 26.1 °C 9.0 °C 25.5 °C 34% 1014.7 hPa 607 W/m² 0.0 mm 0.559 mm 9.3 km/h
16:05 26.2 °C 8.6 °C 25.7 °C 33% 1014.6 hPa 661 W/m² 0.0 mm 0.000 mm 8.7 km/h
16:10 26.3 °C 8.3 °C 25.8 °C 32% 1014.6 hPa 659 W/m² 0.0 mm 0.000 mm 9.1 km/h
16:15 26.3 °C 8.7 °C 25.3 °C 33% 1014.6 hPa 674 W/m² 0.0 mm 0.000 mm 11.7 km/h
16:20 26.3 °C 8.7 °C 25.9 °C 33% 1014.6 hPa 589 W/m² 0.0 mm 0.000 mm 8.3 km/h
16:25 26.2 °C 8.2 °C 26.2 °C 32% 1014.5 hPa 629 W/m² 0.0 mm 0.000 mm 6.5 km/h
16:30 26.3 °C 9.2 °C 25.5 °C 34% 1014.4 hPa 616 W/m² 0.0 mm 0.000 mm 10.7 km/h
16:35 26.4 °C 9.3 °C 26.1 °C 34% 1014.3 hPa 632 W/m² 0.0 mm 0.000 mm 8.1 km/h
16:40 26.8 °C 9.2 °C 26.8 °C 33% 1014.3 hPa 678 W/m² 0.0 mm 0.000 mm 5.1 km/h
16:45 26.9 °C 8.3 °C 26.1 °C 31% 1014.3 hPa 541 W/m² 0.0 mm 0.000 mm 11.1 km/h
16:50 27.2 °C 9.1 °C 27.2 °C 32% 1014.2 hPa 722 W/m² 0.0 mm 0.000 mm 5.0 km/h
16:55 27.0 °C 8.9 °C 25.8 °C 32% 1014.1 hPa 649 W/m² 0.0 mm 0.000 mm 14.6 km/h
17:00 27.2 °C 9.5 °C 27.2 °C 33% 1014.0 hPa 609 W/m² 0.0 mm 0.508 mm 3.4 km/h
17:05 27.3 °C 9.6 °C 27.3 °C 33% 1013.9 hPa 589 W/m² 0.0 mm 0.000 mm 6.6 km/h
17:10 27.6 °C 9.9 °C 27.6 °C 33% 1013.7 hPa 579 W/m² 0.0 mm 0.000 mm 0.6 km/h
17:15 28.0 °C 10.2 °C 28.0 °C 33% 1013.6 hPa 571 W/m² 0.0 mm 0.000 mm 1.6 km/h
17:20 28.2 °C 9.9 °C 28.2 °C 32% 1013.6 hPa 561 W/m² 0.0 mm 0.000 mm 5.8 km/h
17:25 27.8 °C 9.6 °C 27.7 °C 32% 1013.5 hPa 550 W/m² 0.0 mm 0.000 mm 7.1 km/h
17:30 27.4 °C 9.2 °C 26.6 °C 32% 1013.4 hPa 531 W/m² 0.0 mm 0.000 mm 11.3 km/h
17:35 27.3 °C 10.0 °C 26.7 °C 34% 1013.4 hPa 507 W/m² 0.0 mm 0.000 mm 10.3 km/h
17:40 27.1 °C 9.4 °C 26.3 °C 33% 1013.4 hPa 480 W/m² 0.0 mm 0.000 mm 11.2 km/h
17:45 26.9 °C 9.3 °C 26.8 °C 33% 1013.3 hPa 477 W/m² 0.0 mm 0.000 mm 7.0 km/h
17:50 26.9 °C 9.7 °C 26.2 °C 34% 1013.2 hPa 464 W/m² 0.0 mm 0.000 mm 10.2 km/h
17:55 26.8 °C 9.6 °C 25.6 °C 34% 1013.2 hPa 460 W/m² 0.0 mm 0.000 mm 14.3 km/h
18:00 26.6 °C 9.9 °C 25.8 °C 35% 1013.1 hPa 362 W/m² 0.0 mm 0.432 mm 10.9 km/h
18:05 26.3 °C 10.0 °C 25.1 °C 36% 1013.1 hPa 156 W/m² 0.0 mm 0.000 mm 13.5 km/h
18:10 26.0 °C 9.8 °C 25.0 °C 36% 1013.1 hPa 185 W/m² 0.0 mm 0.000 mm 11.6 km/h
18:15 25.8 °C 10.0 °C 24.8 °C 37% 1013.2 hPa 207 W/m² 0.0 mm 0.000 mm 11.6 km/h
18:20 25.8 °C 10.0 °C 25.4 °C 37% 1013.1 hPa 212 W/m² 0.0 mm 0.000 mm 8.2 km/h
18:25 25.8 °C 9.6 °C 24.7 °C 36% 1013.2 hPa 211 W/m² 0.0 mm 0.000 mm 11.8 km/h
18:30 25.7 °C 9.9 °C 24.8 °C 37% 1013.1 hPa 196 W/m² 0.0 mm 0.000 mm 10.6 km/h
18:35 25.7 °C 9.9 °C 24.9 °C 37% 1013.1 hPa 311 W/m² 0.0 mm 0.000 mm 10.3 km/h
18:40 25.7 °C 9.5 °C 24.7 °C 36% 1013.0 hPa 157 W/m² 0.0 mm 0.000 mm 11.4 km/h
18:45 25.7 °C 9.9 °C 24.4 °C 37% 1013.0 hPa 137 W/m² 0.0 mm 0.000 mm 13.4 km/h
18:50 25.6 °C 10.2 °C 24.9 °C 38% 1013.0 hPa 133 W/m² 0.0 mm 0.000 mm 9.7 km/h
18:55 25.6 °C 10.2 °C 24.9 °C 38% 1012.9 hPa 128 W/m² 0.0 mm 0.000 mm 9.8 km/h
19:00 25.5 °C 9.7 °C 24.1 °C 37% 1012.8 hPa 122 W/m² 0.0 mm 0.228 mm 13.4 km/h
19:05 25.5 °C 10.1 °C 24.4 °C 38% 1012.8 hPa 118 W/m² 0.0 mm 0.000 mm 11.7 km/h
19:10 25.4 °C 10.0 °C 24.4 °C 38% 1012.7 hPa 113 W/m² 0.0 mm 0.000 mm 11.0 km/h
19:15 25.4 °C 10.0 °C 24.2 °C 38% 1012.7 hPa 105 W/m² 0.0 mm 0.000 mm 12.4 km/h
19:20 25.3 °C 9.9 °C 24.3 °C 38% 1012.6 hPa 93 W/m² 0.0 mm 0.000 mm 11.0 km/h
19:25 25.2 °C 10.2 °C 24.1 °C 39% 1012.5 hPa 78 W/m² 0.0 mm 0.000 mm 11.5 km/h
19:30 25.1 °C 10.2 °C 24.1 °C 39% 1012.4 hPa 65 W/m² 0.0 mm 0.000 mm 11.0 km/h
19:35 24.9 °C 10.7 °C 23.7 °C 41% 1012.4 hPa 55 W/m² 0.0 mm 0.000 mm 11.9 km/h